sensor_id;sensor_type;location;lat;lon;timestamp;P1;durP1;ratioP1;P2;durP2;ratioP2
19836;SDS011;10079;55.740;37.662;2023-03-01T00:02:13;2.30;;;0.70;;
19836;SDS011;10079;55.740;37.662;2023-03-01T00:04:54;1.97;;;0.50;;
19836;SDS011;10079;55.740;37.662;2023-03-01T00:07:35;1.57;;;0.70;;
19836;SDS011;10079;55.740;37.662;2023-03-01T00:10:16;2.93;;;0.50;;
19836;SDS011;10079;55.740;37.662;2023-03-01T00:12:58;2.23;;;0.67;;
19836;SDS011;10079;55.740;37.662;2023-03-01T00:15:39;2.03;;;0.47;;
19836;SDS011;10079;55.740;37.662;2023-03-01T00:18:22;2.23;;;0.50;;
19836;SDS011;10079;55.740;37.662;2023-03-01T00:21:03;2.13;;;0.50;;
19836;SDS011;10079;55.740;37.662;2023-03-01T00:23:47;2.73;;;0.80;;
19836;SDS011;10079;55.740;37.662;2023-03-01T00:26:29;1.27;;;0.50;;
19836;SDS011;10079;55.740;37.662;2023-03-01T00:29:10;1.30;;;0.70;;
19836;SDS011;10079;55.740;37.662;2023-03-01T00:31:51;1.47;;;0.53;;
19836;SDS011;10079;55.740;37.662;2023-03-01T00:34:32;3.57;;;0.57;;
19836;SDS011;10079;55.740;37.662;2023-03-01T00:37:13;1.00;;;0.40;;
19836;SDS011;10079;55.740;37.662;2023-03-01T00:39:55;3.83;;;0.77;;
19836;SDS011;10079;55.740;37.662;2023-03-01T00:42:44;1.70;;;0.80;;
19836;SDS011;10079;55.740;37.662;2023-03-01T00:45:28;1.90;;;0.70;;
19836;SDS011;10079;55.740;37.662;2023-03-01T00:48:13;1.63;;;0.60;;
19836;SDS011;10079;55.740;37.662;2023-03-01T00:50:53;1.27;;;0.60;;
19836;SDS011;10079;55.740;37.662;2023-03-01T00:53:37;0.67;;;0.50;;
19836;SDS011;10079;55.740;37.662;2023-03-01T00:56:22;2.30;;;0.77;;
19836;SDS011;10079;55.740;37.662;2023-03-01T00:59:06;2.10;;;1.00;;
19836;SDS011;10079;55.740;37.662;2023-03-01T01:12:30;1.73;;;0.80;;
19836;SDS011;10079;55.740;37.662;2023-03-01T01:15:22;1.63;;;0.83;;
19836;SDS011;10079;55.740;37.662;2023-03-01T01:18:06;1.90;;;0.83;;
19836;SDS011;10079;55.740;37.662;2023-03-01T01:20:47;1.97;;;0.80;;
19836;SDS011;10079;55.740;37.662;2023-03-01T01:23:31;5.03;;;0.70;;
19836;SDS011;10079;55.740;37.662;2023-03-01T01:26:15;0.60;;;0.40;;
19836;SDS011;10079;55.740;37.662;2023-03-01T01:28:56;2.43;;;0.50;;
19836;SDS011;10079;55.740;37.662;2023-03-01T01:31:38;5.10;;;0.70;;
19836;SDS011;10079;55.740;37.662;2023-03-01T01:34:21;2.50;;;0.63;;
19836;SDS011;10079;55.740;37.662;2023-03-01T01:47:38;1.47;;;0.60;;
19836;SDS011;10079;55.740;37.662;2023-03-01T01:50:28;2.30;;;0.70;;
19836;SDS011;10079;55.740;37.662;2023-03-01T01:53:18;2.80;;;1.10;;
19836;SDS011;10079;55.740;37.662;2023-03-01T01:55:58;2.53;;;0.50;;
19836;SDS011;10079;55.740;37.662;2023-03-01T01:58:39;1.70;;;0.53;;
19836;SDS011;10079;55.740;37.662;2023-03-01T02:01:28;0.90;;;0.40;;
19836;SDS011;10079;55.740;37.662;2023-03-01T02:04:09;0.87;;;0.37;;
19836;SDS011;10079;55.740;37.662;2023-03-01T02:07:03;0.90;;;0.40;;
19836;SDS011;10079;55.740;37.662;2023-03-01T02:09:47;0.77;;;0.40;;
19836;SDS011;10079;55.740;37.662;2023-03-01T02:12:28;1.20;;;0.70;;
19836;SDS011;10079;55.740;37.662;2023-03-01T02:15:09;0.73;;;0.40;;
19836;SDS011;10079;55.740;37.662;2023-03-01T02:17:51;1.23;;;0.43;;
19836;SDS011;10079;55.740;37.662;2023-03-01T02:23:22;2.33;;;0.53;;
19836;SDS011;10079;55.740;37.662;2023-03-01T02:26:05;1.83;;;0.50;;
19836;SDS011;10079;55.740;37.662;2023-03-01T02:28:48;1.03;;;0.57;;
19836;SDS011;10079;55.740;37.662;2023-03-01T02:31:37;0.83;;;0.47;;
19836;SDS011;10079;55.740;37.662;2023-03-01T02:34:19;1.40;;;0.53;;
19836;SDS011;10079;55.740;37.662;2023-03-01T02:37:01;2.27;;;0.60;;
19836;SDS011;10079;55.740;37.662;2023-03-01T02:39:43;2.20;;;0.47;;
19836;SDS011;10079;55.740;37.662;2023-03-01T02:42:26;0.40;;;0.23;;
19836;SDS011;10079;55.740;37.662;2023-03-01T02:45:05;1.23;;;0.53;;
19836;SDS011;10079;55.740;37.662;2023-03-01T02:47:53;2.00;;;0.43;;
19836;SDS011;10079;55.740;37.662;2023-03-01T02:53:35;4.27;;;0.70;;
19836;SDS011;10079;55.740;37.662;2023-03-01T02:56:14;2.73;;;0.60;;
19836;SDS011;10079;55.740;37.662;2023-03-01T02:58:58;1.17;;;0.50;;
19836;SDS011;10079;55.740;37.662;2023-03-01T03:01:42;0.60;;;0.30;;
19836;SDS011;10079;55.740;37.662;2023-03-01T03:04:23;2.50;;;0.90;;
19836;SDS011;10079;55.740;37.662;2023-03-01T03:07:04;1.30;;;0.60;;
19836;SDS011;10079;55.740;37.662;2023-03-01T03:09:49;4.33;;;0.60;;
19836;SDS011;10079;55.740;37.662;2023-03-01T03:12:30;0.60;;;0.40;;
19836;SDS011;10079;55.740;37.662;2023-03-01T03:15:11;3.03;;;0.70;;
19836;SDS011;10079;55.740;37.662;2023-03-01T03:17:52;2.50;;;0.50;;
19836;SDS011;10079;55.740;37.662;2023-03-01T03:20:33;1.70;;;0.50;;
19836;SDS011;10079;55.740;37.662;2023-03-01T03:23:17;2.00;;;0.50;;
19836;SDS011;10079;55.740;37.662;2023-03-01T03:36:38;6.70;;;0.90;;
19836;SDS011;10079;55.740;37.662;2023-03-01T03:39:18;1.97;;;0.80;;
19836;SDS011;10079;55.740;37.662;2023-03-01T03:42:02;0.80;;;0.37;;
19836;SDS011;10079;55.740;37.662;2023-03-01T03:44:47;3.30;;;0.57;;
19836;SDS011;10079;55.740;37.662;2023-03-01T03:47:39;2.10;;;0.63;;
19836;SDS011;10079;55.740;37.662;2023-03-01T03:50:20;0.87;;;0.50;;
19836;SDS011;10079;55.740;37.662;2023-03-01T03:53:10;1.50;;;0.50;;
19836;SDS011;10079;55.740;37.662;2023-03-01T03:55:54;3.87;;;0.87;;
19836;SDS011;10079;55.740;37.662;2023-03-01T03:58:35;1.00;;;0.50;;
19836;SDS011;10079;55.740;37.662;2023-03-01T04:01:27;2.23;;;0.67;;
19836;SDS011;10079;55.740;37.662;2023-03-01T04:04:11;1.20;;;0.70;;
19836;SDS011;10079;55.740;37.662;2023-03-01T04:06:55;2.40;;;0.87;;
19836;SDS011;10079;55.740;37.662;2023-03-01T04:09:40;2.53;;;0.80;;
19836;SDS011;10079;55.740;37.662;2023-03-01T04:12:24;2.80;;;0.80;;
19836;SDS011;10079;55.740;37.662;2023-03-01T04:15:08;2.40;;;0.60;;
19836;SDS011;10079;55.740;37.662;2023-03-01T04:28:33;2.17;;;0.80;;
19836;SDS011;10079;55.740;37.662;2023-03-01T04:31:15;2.37;;;0.90;;
19836;SDS011;10079;55.740;37.662;2023-03-01T04:33:59;2.63;;;0.63;;
19836;SDS011;10079;55.740;37.662;2023-03-01T04:36:43;1.73;;;0.70;;
19836;SDS011;10079;55.740;37.662;2023-03-01T04:39:27;2.20;;;0.60;;
19836;SDS011;10079;55.740;37.662;2023-03-01T04:42:11;3.17;;;0.97;;
19836;SDS011;10079;55.740;37.662;2023-03-01T04:44:55;3.53;;;1.00;;
19836;SDS011;10079;55.740;37.662;2023-03-01T04:47:49;5.13;;;1.43;;
19836;SDS011;10079;55.740;37.662;2023-03-01T04:50:30;5.80;;;1.23;;
19836;SDS011;10079;55.740;37.662;2023-03-01T04:53:10;5.03;;;1.23;;
19836;SDS011;10079;55.740;37.662;2023-03-01T04:55:52;2.67;;;1.00;;
19836;SDS011;10079;55.740;37.662;2023-03-01T04:58:32;1.60;;;0.90;;
19836;SDS011;10079;55.740;37.662;2023-03-01T05:01:14;5.13;;;1.03;;
19836;SDS011;10079;55.740;37.662;2023-03-01T05:03:54;2.97;;;1.30;;
19836;SDS011;10079;55.740;37.662;2023-03-01T05:06:38;2.50;;;1.27;;
19836;SDS011;10079;55.740;37.662;2023-03-01T05:20:05;7.33;;;1.40;;
19836;SDS011;10079;55.740;37.662;2023-03-01T05:22:47;3.80;;;1.00;;
19836;SDS011;10079;55.740;37.662;2023-03-01T05:25:28;2.10;;;1.07;;
19836;SDS011;10079;55.740;37.662;2023-03-01T05:28:10;1.70;;;0.90;;
19836;SDS011;10079;55.740;37.662;2023-03-01T05:30:51;6.80;;;1.70;;
19836;SDS011;10079;55.740;37.662;2023-03-01T05:33:32;2.93;;;1.30;;
19836;SDS011;10079;55.740;37.662;2023-03-01T05:36:13;2.30;;;0.83;;
19836;SDS011;10079;55.740;37.662;2023-03-01T05:38:54;4.37;;;1.20;;
19836;SDS011;10079;55.740;37.662;2023-03-01T05:41:35;2.50;;;1.07;;
19836;SDS011;10079;55.740;37.662;2023-03-01T05:44:15;3.87;;;1.33;;
19836;SDS011;10079;55.740;37.662;2023-03-01T05:46:56;2.87;;;1.10;;
19836;SDS011;10079;55.740;37.662;2023-03-01T05:49:40;2.50;;;1.40;;
19836;SDS011;10079;55.740;37.662;2023-03-01T05:52:25;1.93;;;1.20;;
19836;SDS011;10079;55.740;37.662;2023-03-01T05:55:18;2.97;;;1.13;;
19836;SDS011;10079;55.740;37.662;2023-03-01T05:57:59;2.53;;;1.27;;
19836;SDS011;10079;55.740;37.662;2023-03-01T06:11:30;2.47;;;1.43;;
19836;SDS011;10079;55.740;37.662;2023-03-01T06:14:22;1.97;;;1.10;;
19836;SDS011;10079;55.740;37.662;2023-03-01T06:17:15;3.73;;;1.30;;
19836;SDS011;10079;55.740;37.662;2023-03-01T06:19:59;2.57;;;1.10;;
19836;SDS011;10079;55.740;37.662;2023-03-01T06:22:52;3.83;;;1.30;;
19836;SDS011;10079;55.740;37.662;2023-03-01T06:25:36;3.80;;;1.50;;
19836;SDS011;10079;55.740;37.662;2023-03-01T06:28:20;4.27;;;1.40;;
19836;SDS011;10079;55.740;37.662;2023-03-01T06:31:04;7.53;;;1.90;;
19836;SDS011;10079;55.740;37.662;2023-03-01T06:33:48;7.37;;;1.87;;
19836;SDS011;10079;55.740;37.662;2023-03-01T06:36:29;4.17;;;1.30;;
19836;SDS011;10079;55.740;37.662;2023-03-01T06:39:18;3.80;;;1.47;;
19836;SDS011;10079;55.740;37.662;2023-03-01T06:41:59;5.00;;;1.50;;
19836;SDS011;10079;55.740;37.662;2023-03-01T06:55:22;10.23;;;2.20;;
19836;SDS011;10079;55.740;37.662;2023-03-01T06:58:03;7.13;;;1.63;;
19836;SDS011;10079;55.740;37.662;2023-03-01T07:00:52;3.50;;;1.50;;
19836;SDS011;10079;55.740;37.662;2023-03-01T07:03:33;2.50;;;1.33;;
19836;SDS011;10079;55.740;37.662;2023-03-01T07:06:25;4.70;;;1.80;;
19836;SDS011;10079;55.740;37.662;2023-03-01T07:09:14;3.07;;;1.63;;
19836;SDS011;10079;55.740;37.662;2023-03-01T07:11:55;6.33;;;2.30;;
19836;SDS011;10079;55.740;37.662;2023-03-01T07:14:36;2.37;;;1.33;;
19836;SDS011;10079;55.740;37.662;2023-03-01T07:17:20;3.47;;;1.47;;
19836;SDS011;10079;55.740;37.662;2023-03-01T07:20:00;3.90;;;1.33;;
19836;SDS011;10079;55.740;37.662;2023-03-01T07:22:42;2.63;;;1.40;;
19836;SDS011;10079;55.740;37.662;2023-03-01T07:25:22;2.40;;;1.40;;
19836;SDS011;10079;55.740;37.662;2023-03-01T07:28:15;3.33;;;1.10;;
19836;SDS011;10079;55.740;37.662;2023-03-01T07:31:01;6.10;;;1.30;;
19836;SDS011;10079;55.740;37.662;2023-03-01T07:33:45;6.07;;;1.70;;
19836;SDS011;10079;55.740;37.662;2023-03-01T07:36:29;3.23;;;1.53;;
19836;SDS011;10079;55.740;37.662;2023-03-01T07:39:10;3.80;;;1.30;;
19836;SDS011;10079;55.740;37.662;2023-03-01T07:41:54;4.60;;;1.80;;
19836;SDS011;10079;55.740;37.662;2023-03-01T07:44:35;4.10;;;2.10;;
19836;SDS011;10079;55.740;37.662;2023-03-01T07:47:15;3.73;;;1.93;;
19836;SDS011;10079;55.740;37.662;2023-03-01T07:49:56;3.47;;;1.80;;
19836;SDS011;10079;55.740;37.662;2023-03-01T07:52:37;3.03;;;1.20;;
19836;SDS011;10079;55.740;37.662;2023-03-01T07:55:18;3.10;;;1.50;;
19836;SDS011;10079;55.740;37.662;2023-03-01T07:58:06;6.33;;;2.17;;
19836;SDS011;10079;55.740;37.662;2023-03-01T08:00:49;3.63;;;1.67;;
19836;SDS011;10079;55.740;37.662;2023-03-01T08:03:30;4.27;;;2.00;;
19836;SDS011;10079;55.740;37.662;2023-03-01T08:06:11;4.20;;;2.07;;
19836;SDS011;10079;55.740;37.662;2023-03-01T08:08:51;3.63;;;1.90;;
19836;SDS011;10079;55.740;37.662;2023-03-01T08:11:35;4.23;;;2.00;;
19836;SDS011;10079;55.740;37.662;2023-03-01T08:14:16;4.63;;;1.70;;
19836;SDS011;10079;55.740;37.662;2023-03-01T08:17:00;3.63;;;1.87;;
19836;SDS011;10079;55.740;37.662;2023-03-01T08:19:53;3.30;;;1.37;;
19836;SDS011;10079;55.740;37.662;2023-03-01T08:22:37;5.37;;;5.07;;
19836;SDS011;10079;55.740;37.662;2023-03-01T08:25:18;5.60;;;2.67;;
19836;SDS011;10079;55.740;37.662;2023-03-01T08:28:09;7.40;;;3.77;;
19836;SDS011;10079;55.740;37.662;2023-03-01T08:31:01;4.23;;;3.10;;
19836;SDS011;10079;55.740;37.662;2023-03-01T08:33:46;4.17;;;3.33;;
19836;SDS011;10079;55.740;37.662;2023-03-01T08:36:31;6.43;;;5.83;;
19836;SDS011;10079;55.740;37.662;2023-03-01T08:39:24;4.33;;;3.23;;
19836;SDS011;10079;55.740;37.662;2023-03-01T08:42:08;7.93;;;3.53;;
19836;SDS011;10079;55.740;37.662;2023-03-01T08:45:01;6.10;;;2.53;;
19836;SDS011;10079;55.740;37.662;2023-03-01T08:47:51;4.87;;;1.70;;
19836;SDS011;10079;55.740;37.662;2023-03-01T08:50:30;2.70;;;1.67;;
19836;SDS011;10079;55.740;37.662;2023-03-01T08:53:19;4.90;;;1.87;;
19836;SDS011;10079;55.740;37.662;2023-03-01T08:56:00;3.53;;;1.90;;
19836;SDS011;10079;55.740;37.662;2023-03-01T08:58:45;2.77;;;1.50;;
19836;SDS011;10079;55.740;37.662;2023-03-01T09:01:26;3.10;;;1.60;;
19836;SDS011;10079;55.740;37.662;2023-03-01T09:04:07;2.57;;;1.90;;
19836;SDS011;10079;55.740;37.662;2023-03-01T09:06:59;4.83;;;1.93;;
19836;SDS011;10079;55.740;37.662;2023-03-01T09:20:11;2.77;;;1.70;;
19836;SDS011;10079;55.740;37.662;2023-03-01T09:22:55;3.63;;;1.60;;
19836;SDS011;10079;55.740;37.662;2023-03-01T09:25:45;2.63;;;1.40;;
19836;SDS011;10079;55.740;37.662;2023-03-01T09:28:34;3.00;;;1.50;;
19836;SDS011;10079;55.740;37.662;2023-03-01T09:31:15;4.33;;;1.60;;
19836;SDS011;10079;55.740;37.662;2023-03-01T09:33:59;4.80;;;1.50;;
19836;SDS011;10079;55.740;37.662;2023-03-01T09:36:43;3.47;;;1.83;;
19836;SDS011;10079;55.740;37.662;2023-03-01T09:39:25;3.37;;;1.87;;
19836;SDS011;10079;55.740;37.662;2023-03-01T09:42:10;2.47;;;1.50;;
19836;SDS011;10079;55.740;37.662;2023-03-01T09:44:53;3.30;;;1.77;;
19836;SDS011;10079;55.740;37.662;2023-03-01T09:47:33;3.60;;;2.00;;
19836;SDS011;10079;55.740;37.662;2023-03-01T09:50:16;3.07;;;1.33;;
19836;SDS011;10079;55.740;37.662;2023-03-01T09:53:01;3.57;;;1.23;;
19836;SDS011;10079;55.740;37.662;2023-03-01T09:55:59;2.73;;;1.20;;
19836;SDS011;10079;55.740;37.662;2023-03-01T10:01:40;3.50;;;1.80;;
19836;SDS011;10079;55.740;37.662;2023-03-01T10:04:29;3.30;;;1.93;;
19836;SDS011;10079;55.740;37.662;2023-03-01T10:10:31;3.23;;;1.40;;
19836;SDS011;10079;55.740;37.662;2023-03-01T10:13:15;4.20;;;1.80;;
19836;SDS011;10079;55.740;37.662;2023-03-01T10:15:57;5.70;;;1.83;;
19836;SDS011;10079;55.740;37.662;2023-03-01T10:18:36;3.63;;;1.33;;
19836;SDS011;10079;55.740;37.662;2023-03-01T10:31:51;4.40;;;1.80;;
19836;SDS011;10079;55.740;37.662;2023-03-01T10:34:34;5.53;;;2.33;;
19836;SDS011;10079;55.740;37.662;2023-03-01T10:37:15;2.83;;;1.60;;
19836;SDS011;10079;55.740;37.662;2023-03-01T10:42:52;3.93;;;1.40;;
19836;SDS011;10079;55.740;37.662;2023-03-01T10:45:35;4.23;;;2.53;;
19836;SDS011;10079;55.740;37.662;2023-03-01T10:48:19;2.33;;;1.70;;
19836;SDS011;10079;55.740;37.662;2023-03-01T10:51:07;1.67;;;1.10;;
19836;SDS011;10079;55.740;37.662;2023-03-01T10:53:48;1.90;;;1.10;;
19836;SDS011;10079;55.740;37.662;2023-03-01T10:56:29;3.73;;;1.73;;
19836;SDS011;10079;55.740;37.662;2023-03-01T10:59:20;3.57;;;1.53;;
19836;SDS011;10079;55.740;37.662;2023-03-01T11:02:14;2.23;;;1.00;;
19836;SDS011;10079;55.740;37.662;2023-03-01T11:04:57;3.43;;;1.20;;
19836;SDS011;10079;55.740;37.662;2023-03-01T11:07:47;2.43;;;1.37;;
19836;SDS011;10079;55.740;37.662;2023-03-01T11:21:12;3.53;;;1.67;;
19836;SDS011;10079;55.740;37.662;2023-03-01T11:34:48;3.23;;;1.10;;
19836;SDS011;10079;55.740;37.662;2023-03-01T11:37:32;4.03;;;1.87;;
19836;SDS011;10079;55.740;37.662;2023-03-01T11:40:15;4.13;;;1.40;;
19836;SDS011;10079;55.740;37.662;2023-03-01T11:43:01;5.37;;;2.37;;
19836;SDS011;10079;55.740;37.662;2023-03-01T11:46:18;3.80;;;1.20;;
19836;SDS011;10079;55.740;37.662;2023-03-01T11:49:04;4.07;;;1.40;;
19836;SDS011;10079;55.740;37.662;2023-03-01T11:55:12;3.67;;;1.10;;
19836;SDS011;10079;55.740;37.662;2023-03-01T11:58:05;6.27;;;1.40;;
19836;SDS011;10079;55.740;37.662;2023-03-01T12:00:58;2.07;;;0.80;;
19836;SDS011;10079;55.740;37.662;2023-03-01T12:03:47;2.40;;;1.00;;
19836;SDS011;10079;55.740;37.662;2023-03-01T12:06:48;1.67;;;0.87;;
19836;SDS011;10079;55.740;37.662;2023-03-01T12:09:38;4.90;;;1.30;;
19836;SDS011;10079;55.740;37.662;2023-03-01T12:12:29;3.13;;;1.33;;
19836;SDS011;10079;55.740;37.662;2023-03-01T12:18:24;2.97;;;0.90;;
19836;SDS011;10079;55.740;37.662;2023-03-01T12:21:05;3.70;;;1.07;;
19836;SDS011;10079;55.740;37.662;2023-03-01T12:24:14;1.97;;;0.80;;
19836;SDS011;10079;55.740;37.662;2023-03-01T12:43:51;2.67;;;0.90;;
19836;SDS011;10079;55.740;37.662;2023-03-01T12:46:38;2.33;;;0.80;;
19836;SDS011;10079;55.740;37.662;2023-03-01T12:49:33;2.93;;;0.83;;
19836;SDS011;10079;55.740;37.662;2023-03-01T13:03:01;2.37;;;1.10;;
19836;SDS011;10079;55.740;37.662;2023-03-01T13:06:08;2.03;;;0.77;;
19836;SDS011;10079;55.740;37.662;2023-03-01T13:08:49;2.97;;;1.20;;
19836;SDS011;10079;55.740;37.662;2023-03-01T13:11:30;2.93;;;1.00;;
19836;SDS011;10079;55.740;37.662;2023-03-01T13:20:12;3.93;;;1.60;;
19836;SDS011;10079;55.740;37.662;2023-03-01T13:22:59;1.80;;;0.70;;
19836;SDS011;10079;55.740;37.662;2023-03-01T13:25:31;3.17;;;0.80;;
19836;SDS011;10079;55.740;37.662;2023-03-01T13:34:42;2.00;;;1.00;;
19836;SDS011;10079;55.740;37.662;2023-03-01T13:37:28;4.43;;;1.10;;
19836;SDS011;10079;55.740;37.662;2023-03-01T13:43:38;2.57;;;0.90;;
19836;SDS011;10079;55.740;37.662;2023-03-01T13:56:53;2.10;;;1.00;;
19836;SDS011;10079;55.740;37.662;2023-03-01T13:59:34;2.70;;;0.97;;
19836;SDS011;10079;55.740;37.662;2023-03-01T14:02:18;4.37;;;1.40;;
19836;SDS011;10079;55.740;37.662;2023-03-01T14:05:02;3.83;;;1.40;;
19836;SDS011;10079;55.740;37.662;2023-03-01T14:07:53;4.83;;;1.20;;
19836;SDS011;10079;55.740;37.662;2023-03-01T14:10:39;4.40;;;2.07;;
19836;SDS011;10079;55.740;37.662;2023-03-01T14:16:24;3.33;;;1.23;;
19836;SDS011;10079;55.740;37.662;2023-03-01T14:19:14;2.63;;;1.03;;
19836;SDS011;10079;55.740;37.662;2023-03-01T14:24:54;1.33;;;1.00;;
19836;SDS011;10079;55.740;37.662;2023-03-01T14:27:35;2.60;;;1.30;;
19836;SDS011;10079;55.740;37.662;2023-03-01T14:30:19;2.30;;;1.00;;
19836;SDS011;10079;55.740;37.662;2023-03-01T14:33:05;3.90;;;1.10;;
19836;SDS011;10079;55.740;37.662;2023-03-01T14:35:52;2.87;;;1.77;;
19836;SDS011;10079;55.740;37.662;2023-03-01T14:38:35;2.60;;;1.40;;
19836;SDS011;10079;55.740;37.662;2023-03-01T14:41:20;2.00;;;1.10;;
19836;SDS011;10079;55.740;37.662;2023-03-01T14:44:05;3.00;;;1.13;;
19836;SDS011;10079;55.740;37.662;2023-03-01T14:46:51;2.73;;;1.00;;
19836;SDS011;10079;55.740;37.662;2023-03-01T14:49:29;2.40;;;1.00;;
19836;SDS011;10079;55.740;37.662;2023-03-01T14:52:18;1.43;;;0.80;;
19836;SDS011;10079;55.740;37.662;2023-03-01T15:05:46;3.67;;;1.20;;
19836;SDS011;10079;55.740;37.662;2023-03-01T15:08:30;2.47;;;1.23;;
19836;SDS011;10079;55.740;37.662;2023-03-01T15:11:22;2.63;;;1.20;;
19836;SDS011;10079;55.740;37.662;2023-03-01T15:14:08;2.33;;;1.10;;
19836;SDS011;10079;55.740;37.662;2023-03-01T15:16:54;4.17;;;1.03;;
19836;SDS011;10079;55.740;37.662;2023-03-01T15:19:35;2.40;;;1.03;;
19836;SDS011;10079;55.740;37.662;2023-03-01T15:22:15;2.53;;;1.80;;
19836;SDS011;10079;55.740;37.662;2023-03-01T15:24:59;3.00;;;1.67;;
19836;SDS011;10079;55.740;37.662;2023-03-01T15:27:44;2.60;;;1.27;;
19836;SDS011;10079;55.740;37.662;2023-03-01T15:30:23;2.93;;;1.20;;
19836;SDS011;10079;55.740;37.662;2023-03-01T15:33:28;6.13;;;2.30;;
19836;SDS011;10079;55.740;37.662;2023-03-01T15:39:22;2.60;;;0.90;;
19836;SDS011;10079;55.740;37.662;2023-03-01T15:41:47;1.37;;;1.00;;
19836;SDS011;10079;55.740;37.662;2023-03-01T15:44:30;2.63;;;0.97;;
19836;SDS011;10079;55.740;37.662;2023-03-01T15:50:16;2.93;;;1.20;;
19836;SDS011;10079;55.740;37.662;2023-03-01T15:52:56;3.73;;;1.20;;
19836;SDS011;10079;55.740;37.662;2023-03-01T15:55:37;2.03;;;1.10;;
19836;SDS011;10079;55.740;37.662;2023-03-01T15:58:19;3.43;;;1.90;;
19836;SDS011;10079;55.740;37.662;2023-03-01T16:00:59;2.40;;;1.20;;
19836;SDS011;10079;55.740;37.662;2023-03-01T16:03:40;2.07;;;0.83;;
19836;SDS011;10079;55.740;37.662;2023-03-01T16:06:21;4.77;;;1.30;;
19836;SDS011;10079;55.740;37.662;2023-03-01T16:09:02;3.20;;;1.57;;
19836;SDS011;10079;55.740;37.662;2023-03-01T16:11:42;3.27;;;1.83;;
19836;SDS011;10079;55.740;37.662;2023-03-01T16:14:30;2.70;;;1.20;;
19836;SDS011;10079;55.740;37.662;2023-03-01T16:17:15;4.40;;;1.47;;
19836;SDS011;10079;55.740;37.662;2023-03-01T16:19:59;2.37;;;1.13;;
19836;SDS011;10079;55.740;37.662;2023-03-01T16:22:52;5.10;;;1.27;;
19836;SDS011;10079;55.740;37.662;2023-03-01T16:25:43;2.30;;;1.10;;
19836;SDS011;10079;55.740;37.662;2023-03-01T16:49:54;2.40;;;1.10;;
19836;SDS011;10079;55.740;37.662;2023-03-01T16:52:38;1.00;;;0.90;;
19836;SDS011;10079;55.740;37.662;2023-03-01T16:55:22;3.87;;;1.00;;
19836;SDS011;10079;55.740;37.662;2023-03-01T16:58:07;2.00;;;0.70;;
19836;SDS011;10079;55.740;37.662;2023-03-01T17:00:52;4.30;;;2.00;;
19836;SDS011;10079;55.740;37.662;2023-03-01T17:03:36;2.93;;;1.70;;
19836;SDS011;10079;55.740;37.662;2023-03-01T17:06:20;5.50;;;2.30;;
19836;SDS011;10079;55.740;37.662;2023-03-01T17:19:35;3.53;;;1.10;;
19836;SDS011;10079;55.740;37.662;2023-03-01T17:22:16;3.43;;;1.10;;
19836;SDS011;10079;55.740;37.662;2023-03-01T17:24:57;6.77;;;1.87;;
19836;SDS011;10079;55.740;37.662;2023-03-01T17:38:18;3.03;;;1.63;;
19836;SDS011;10079;55.740;37.662;2023-03-01T17:40:59;4.37;;;1.87;;
19836;SDS011;10079;55.740;37.662;2023-03-01T17:43:39;3.07;;;1.70;;
19836;SDS011;10079;55.740;37.662;2023-03-01T17:57:02;2.00;;;0.93;;
19836;SDS011;10079;55.740;37.662;2023-03-01T17:59:43;3.47;;;1.17;;
19836;SDS011;10079;55.740;37.662;2023-03-01T18:13:03;2.40;;;1.10;;
19836;SDS011;10079;55.740;37.662;2023-03-01T18:15:44;2.50;;;0.83;;
19836;SDS011;10079;55.740;37.662;2023-03-01T18:18:24;2.67;;;0.90;;
19836;SDS011;10079;55.740;37.662;2023-03-01T18:21:07;2.13;;;1.00;;
19836;SDS011;10079;55.740;37.662;2023-03-01T18:23:50;2.50;;;1.20;;
19836;SDS011;10079;55.740;37.662;2023-03-01T18:26:30;2.43;;;1.00;;
19836;SDS011;10079;55.740;37.662;2023-03-01T18:29:11;1.27;;;0.70;;
19836;SDS011;10079;55.740;37.662;2023-03-01T18:31:52;4.03;;;1.30;;
19836;SDS011;10079;55.740;37.662;2023-03-01T18:34:33;3.17;;;1.13;;
19836;SDS011;10079;55.740;37.662;2023-03-01T18:37:14;4.23;;;1.53;;
19836;SDS011;10079;55.740;37.662;2023-03-01T18:39:55;4.40;;;1.50;;
19836;SDS011;10079;55.740;37.662;2023-03-01T18:42:36;1.20;;;0.77;;
19836;SDS011;10079;55.740;37.662;2023-03-01T18:45:16;4.53;;;1.23;;
19836;SDS011;10079;55.740;37.662;2023-03-01T18:47:58;2.33;;;0.83;;
19836;SDS011;10079;55.740;37.662;2023-03-01T18:50:40;1.97;;;1.00;;
19836;SDS011;10079;55.740;37.662;2023-03-01T18:53:21;2.67;;;1.17;;
19836;SDS011;10079;55.740;37.662;2023-03-01T18:56:11;4.63;;;0.90;;
19836;SDS011;10079;55.740;37.662;2023-03-01T18:58:52;2.03;;;1.20;;
19836;SDS011;10079;55.740;37.662;2023-03-01T19:01:36;4.93;;;1.67;;
19836;SDS011;10079;55.740;37.662;2023-03-01T19:04:17;4.37;;;1.73;;
19836;SDS011;10079;55.740;37.662;2023-03-01T19:06:58;2.83;;;1.30;;
19836;SDS011;10079;55.740;37.662;2023-03-01T19:09:39;3.33;;;1.13;;
19836;SDS011;10079;55.740;37.662;2023-03-01T19:12:31;3.97;;;1.40;;
19836;SDS011;10079;55.740;37.662;2023-03-01T19:15:12;4.77;;;1.40;;
19836;SDS011;10079;55.740;37.662;2023-03-01T19:18:05;2.93;;;1.30;;
19836;SDS011;10079;55.740;37.662;2023-03-01T19:31:19;3.37;;;1.20;;
19836;SDS011;10079;55.740;37.662;2023-03-01T19:44:38;5.97;;;1.37;;
19836;SDS011;10079;55.740;37.662;2023-03-01T19:47:22;3.20;;;1.50;;
19836;SDS011;10079;55.740;37.662;2023-03-01T20:00:47;2.60;;;1.30;;
19836;SDS011;10079;55.740;37.662;2023-03-01T20:14:05;2.93;;;1.00;;
19836;SDS011;10079;55.740;37.662;2023-03-01T20:16:55;1.83;;;0.97;;
19836;SDS011;10079;55.740;37.662;2023-03-01T20:19:39;3.43;;;1.00;;
19836;SDS011;10079;55.740;37.662;2023-03-01T20:22:20;1.77;;;1.03;;
19836;SDS011;10079;55.740;37.662;2023-03-01T20:25:00;2.10;;;1.30;;
19836;SDS011;10079;55.740;37.662;2023-03-01T20:27:44;2.23;;;1.00;;
19836;SDS011;10079;55.740;37.662;2023-03-01T20:30:25;4.60;;;1.00;;
19836;SDS011;10079;55.740;37.662;2023-03-01T20:33:06;1.90;;;0.87;;
19836;SDS011;10079;55.740;37.662;2023-03-01T20:35:50;1.07;;;0.63;;
19836;SDS011;10079;55.740;37.662;2023-03-01T20:38:31;3.37;;;1.00;;
19836;SDS011;10079;55.740;37.662;2023-03-01T20:41:13;3.83;;;1.00;;
19836;SDS011;10079;55.740;37.662;2023-03-01T20:43:54;2.50;;;0.80;;
19836;SDS011;10079;55.740;37.662;2023-03-01T20:46:35;3.53;;;1.07;;
19836;SDS011;10079;55.740;37.662;2023-03-01T20:49:15;1.63;;;0.90;;
19836;SDS011;10079;55.740;37.662;2023-03-01T20:51:56;4.93;;;1.10;;
19836;SDS011;10079;55.740;37.662;2023-03-01T20:54:49;2.97;;;1.00;;
19836;SDS011;10079;55.740;37.662;2023-03-01T20:57:30;3.20;;;1.10;;
19836;SDS011;10079;55.740;37.662;2023-03-01T21:00:12;3.40;;;0.70;;
19836;SDS011;10079;55.740;37.662;2023-03-01T21:02:56;4.20;;;0.90;;
19836;SDS011;10079;55.740;37.662;2023-03-01T21:05:37;1.73;;;0.60;;
19836;SDS011;10079;55.740;37.662;2023-03-01T21:08:17;1.73;;;1.00;;
19836;SDS011;10079;55.740;37.662;2023-03-01T21:11:00;3.37;;;1.00;;
19836;SDS011;10079;55.740;37.662;2023-03-01T21:13:41;3.33;;;1.30;;
19836;SDS011;10079;55.740;37.662;2023-03-01T21:16:21;1.87;;;0.93;;
19836;SDS011;10079;55.740;37.662;2023-03-01T21:19:02;2.80;;;1.07;;
19836;SDS011;10079;55.740;37.662;2023-03-01T21:21:43;2.27;;;0.90;;
19836;SDS011;10079;55.740;37.662;2023-03-01T21:24:24;6.20;;;1.30;;
19836;SDS011;10079;55.740;37.662;2023-03-01T21:27:04;3.80;;;1.27;;
19836;SDS011;10079;55.740;37.662;2023-03-01T21:29:46;4.20;;;1.10;;
19836;SDS011;10079;55.740;37.662;2023-03-01T21:32:26;1.90;;;0.90;;
19836;SDS011;10079;55.740;37.662;2023-03-01T21:35:07;1.50;;;1.00;;